aviador You're here:

KSPW Decoded Metar

SPENCER in IA, USA
Report Time2017-10-21 14:53:00
UTC Time2017-10-21 15:41:37
Flight Rules mvfr MVFR
Wind160° at 18 Gusting to 25 kt
W.Decomp.*RWY 18: 16.3 kt HW 7.6 kt LCW
RWY 12: 14.7 kt HW 10.3 kt RCW
W.Rank160° ranks 2
Current wind is above 160° avg. (10.5)
Visibility9999 m
Phenomena:N/A
Clouds:Broken 014 Hf
Overcast 020 Hf
Expected CloudBase > 800 ft AGL from Temp-Dew spread
Ceiling1,400 ft
Temp18°C (ISA +6)
Dew Point16°C (88% RH)
AAT13.5°C
QNH1004 hPa
Density Alt2,533 ft
Elevation1,322 ft
Report Wrong Elevation
Raw Report
METAR KSPW 211453Z AUTO 16018G25KT 10SM BKN014 OVC020 18/16 A2964 RMK
AO2 PK WND 17028/1415 SLP033 60001 T01780161 51003=

Extra information for KSPW:More info

Metar Taf Metar & Taf Last 4 Metars F.Rules Stats Wind Profile Meteogram Temp Stats Airport Information Weather charts Add Link Nearby VenuesMetar ALERT Operation Metar Decoded Social comments

AIRNAV info for KSPW